Time;durP1;ratioP1;P1;durP2;ratioP2;P2;SDS_P1;SDS_P2;PMS_P1;PMS_P2;Temp;Humidity;BMP_temperature;BMP_pressure;BME280_temperature;BME280_humidity;BME280_pressure;Samples;Min_cycle;Max_cycle;Signal;HPM_P1;HPM_P2
2022/06/17 00:00:53;;;;;;;8.30;4.20;;;10.90;85.90;;;;;;5072338;28;20035;-82
2022/06/17 00:03:20;;;;;;;8.93;4.22;;;10.80;85.30;;;;;;5071710;28;20032;-82
2022/06/17 00:05:46;;;;;;;9.68;4.38;;;10.80;87.10;;;;;;5056223;28;20054;-82
2022/06/17 00:08:37;;;;;;;6.53;4.40;;;10.80;87.70;;;;;;5057881;28;20416;-82
2022/06/17 00:11:04;;;;;;;7.95;4.55;;;10.80;86.50;;;;;;5052211;28;20036;-82
2022/06/17 00:13:29;;;;;;;6.40;4.28;;;10.70;86.00;;;;;;5068612;28;20300;-82
2022/06/17 00:15:55;;;;;;;8.73;4.70;;;10.70;86.20;;;;;;5067500;28;20091;-82
2022/06/17 00:18:23;;;;;;;9.35;4.72;;;10.70;86.30;;;;;;5055811;28;20043;-82
2022/06/17 00:20:49;;;;;;;9.57;4.85;;;10.70;86.70;;;;;;5072509;28;20048;-82
2022/06/17 00:23:17;;;;;;;8.48;4.82;;;10.70;87.10;;;;;;5072316;28;20047;-82
2022/06/17 00:25:45;;;;;;;7.50;4.78;;;10.70;87.60;;;;;;5066694;28;20120;-82
2022/06/17 00:28:18;;;;;;;9.23;5.32;;;10.60;87.70;;;;;;5053913;28;20059;-82
2022/06/17 00:30:45;;;;;;;7.00;4.55;;;10.60;87.30;;;;;;5051745;28;20058;-82
2022/06/17 00:33:11;;;;;;;6.93;4.25;;;10.50;86.70;;;;;;5053004;28;20036;-82
2022/06/17 00:35:40;;;;;;;9.63;5.03;;;10.40;86.40;;;;;;5050750;28;20021;-82
2022/06/17 00:38:11;;;;;;;8.73;5.22;;;10.40;87.20;;;;;;5057038;28;20025;-82
2022/06/17 00:40:37;;;;;;;9.48;5.13;;;10.40;88.40;;;;;;5072474;28;20118;-82
2022/06/17 00:43:10;;;;;;;8.25;5.03;;;10.30;88.10;;;;;;5058047;28;20097;-82
2022/06/17 00:45:46;;;;;;;8.30;5.35;;;10.30;87.60;;;;;;5048646;28;20020;-82
2022/06/17 00:48:18;;;;;;;8.05;5.38;;;10.30;88.00;;;;;;5053161;28;20032;-82
2022/06/17 00:50:52;;;;;;;9.48;5.00;;;10.20;87.50;;;;;;5054739;28;20032;-82
2022/06/17 00:53:46;;;;;;;7.97;5.47;;;10.20;87.40;;;;;;5055077;28;20029;-82
2022/06/17 00:56:25;;;;;;;7.65;4.65;;;10.20;87.50;;;;;;5067043;28;20428;-82
2022/06/17 00:59:00;;;;;;;9.68;5.43;;;10.20;88.50;;;;;;5049821;28;20325;-82
2022/06/17 01:01:28;;;;;;;8.77;5.32;;;10.10;88.50;;;;;;5051824;28;20438;-82
2022/06/17 01:03:57;;;;;;;10.10;5.25;;;10.10;88.30;;;;;;5054282;28;20037;-82
2022/06/17 01:06:27;;;;;;;8.82;5.72;;;10.20;88.50;;;;;;5072473;28;20130;-82
2022/06/17 01:12:01;;;;;;;9.15;5.70;;;10.10;88.40;;;;;;5064076;28;20055;-82
2022/06/17 01:14:27;;;;;;;9.50;5.70;;;10.10;89.10;;;;;;5055195;28;20031;-82
2022/06/17 01:16:55;;;;;;;11.43;6.15;;;10.10;88.50;;;;;;5055582;28;20051;-82
2022/06/17 01:19:40;;;;;;;8.88;5.60;;;10.10;88.10;;;;;;5054404;28;20028;-82
2022/06/17 01:22:12;;;;;;;14.30;6.75;;;10.10;88.10;;;;;;5042493;28;20025;-82
2022/06/17 01:24:38;;;;;;;11.50;6.28;;;10.10;88.40;;;;;;5053181;28;20040;-82
2022/06/17 01:27:04;;;;;;;10.93;6.75;;;10.10;88.50;;;;;;5046183;28;20087;-82
2022/06/17 01:29:31;;;;;;;13.38;7.20;;;10.00;88.90;;;;;;5053967;28;20058;-82
2022/06/17 01:31:56;;;;;;;11.20;7.00;;;10.10;89.50;;;;;;5054139;28;20467;-82
2022/06/17 01:34:23;;;;;;;15.20;6.88;;;10.10;89.40;;;;;;5071173;28;20028;-82
2022/06/17 01:36:50;;;;;;;12.88;6.93;;;10.00;88.90;;;;;;5053827;28;20119;-82
2022/06/17 01:39:17;;;;;;;10.80;6.50;;;10.00;88.60;;;;;;5053327;28;20052;-82
2022/06/17 01:41:44;;;;;;;12.82;7.07;;;10.10;88.50;;;;;;5071011;28;20032;-82
2022/06/17 01:44:37;;;;;;;12.23;6.82;;;10.00;88.70;;;;;;5070202;28;20068;-82
2022/06/17 01:47:11;;;;;;;12.30;7.28;;;10.00;89.00;;;;;;5048402;28;20040;-82
2022/06/17 01:49:42;;;;;;;12.00;7.30;;;10.00;89.50;;;;;;5053321;28;20832;-82
2022/06/17 01:52:12;;;;;;;14.15;8.73;;;10.00;89.80;;;;;;5066926;28;20043;-82
2022/06/17 01:54:46;;;;;;;17.13;8.48;;;10.10;89.90;;;;;;5049375;28;20032;-82
2022/06/17 01:57:16;;;;;;;17.75;8.73;;;10.10;90.20;;;;;;5067762;28;20666;-83
2022/06/17 01:59:57;;;;;;;14.77;9.60;;;10.10;89.80;;;;;;5051411;28;20025;-83
2022/06/17 02:02:24;;;;;;;19.35;10.93;;;10.00;89.70;;;;;;5053042;28;20653;-83
2022/06/17 02:04:57;;;;;;;12.27;10.18;;;10.00;89.70;;;;;;5053636;28;20514;-82
2022/06/17 02:07:55;;;;;;;17.25;10.18;;;10.00;89.60;;;;;;5072529;28;20024;-82
2022/06/17 02:10:23;;;;;;;18.45;10.13;;;10.00;89.90;;;;;;5068284;28;20040;-83
2022/06/17 02:12:50;;;;;;;16.48;9.20;;;10.00;90.10;;;;;;5064543;28;20047;-83
2022/06/17 02:15:16;;;;;;;14.10;9.45;;;10.00;89.80;;;;;;5044395;28;20125;-83
2022/06/17 02:17:44;;;;;;;15.50;9.75;;;10.00;89.90;;;;;;5066957;28;20647;-82
2022/06/17 02:20:12;;;;;;;16.30;8.48;;;10.00;89.70;;;;;;5046382;28;20032;-82
2022/06/17 02:22:37;;;;;;;17.17;9.80;;;9.90;89.30;;;;;;5049770;28;20491;-82
2022/06/17 02:25:08;;;;;;;14.35;9.60;;;9.90;89.50;;;;;;5052117;28;20040;-82
2022/06/17 02:27:35;;;;;;;14.40;8.13;;;9.80;89.80;;;;;;5049622;28;20026;-82
2022/06/17 02:30:07;;;;;;;12.10;8.55;;;9.80;89.80;;;;;;5059246;28;20506;-82
2022/06/17 02:32:33;;;;;;;13.60;8.68;;;9.70;89.70;;;;;;5046259;28;20031;-83
2022/06/17 02:35:22;;;;;;;15.63;9.52;;;9.70;89.40;;;;;;5052972;28;20025;-83
2022/06/17 02:37:48;;;;;;;16.48;8.88;;;9.70;89.80;;;;;;5042670;28;20033;-83
2022/06/17 02:40:28;;;;;;;14.80;9.52;;;9.70;90.10;;;;;;5048208;28;20215;-83
2022/06/17 02:42:54;;;;;;;13.80;9.93;;;9.70;90.40;;;;;;5049990;28;20491;-83
2022/06/17 02:45:25;;;;;;;14.32;9.80;;;9.70;90.60;;;;;;5064245;28;20021;-83
2022/06/17 02:47:52;;;;;;;14.68;10.05;;;9.70;90.70;;;;;;5069331;28;20029;-83
2022/06/17 02:50:22;;;;;;;18.45;10.25;;;9.70;90.90;;;;;;5049501;28;20411;-83
2022/06/17 02:52:48;;;;;;;17.30;9.70;;;9.70;90.60;;;;;;5066523;28;20020;-83
2022/06/17 02:55:31;;;;;;;14.15;10.20;;;9.70;90.50;;;;;;5065462;28;20028;-83
2022/06/17 02:58:05;;;;;;;15.68;9.40;;;9.70;90.40;;;;;;5047569;28;20118;-82
2022/06/17 03:00:31;;;;;;;13.52;9.18;;;9.70;90.30;;;;;;5040517;28;20029;-83
2022/06/17 03:03:03;;;;;;;13.90;9.25;;;9.70;90.00;;;;;;5066455;28;20035;-83
2022/06/17 03:05:33;;;;;;;16.25;10.48;;;9.60;90.10;;;;;;5044939;28;20403;-83
2022/06/17 03:07:59;;;;;;;15.40;10.27;;;9.60;90.10;;;;;;5048416;28;20027;-83
2022/06/17 03:10:30;;;;;;;16.17;9.90;;;9.70;90.30;;;;;;5049094;28;20032;-83
2022/06/17 03:13:01;;;;;;;15.48;9.95;;;9.70;90.40;;;;;;5067632;28;20530;-83
2022/06/17 03:15:27;;;;;;;18.15;9.98;;;9.70;90.50;;;;;;5053293;28;20020;-82
2022/06/17 03:17:53;;;;;;;14.63;9.95;;;9.80;90.50;;;;;;5064805;28;20123;-83
2022/06/17 03:20:28;;;;;;;17.05;9.98;;;9.80;90.40;;;;;;5069111;28;20025;-83
2022/06/17 03:23:01;;;;;;;14.90;10.35;;;9.90;90.20;;;;;;5068402;28;20025;-83
2022/06/17 03:25:39;;;;;;;18.55;11.00;;;9.90;90.10;;;;;;5067960;28;20058;-83
2022/06/17 03:28:12;;;;;;;14.75;10.50;;;10.00;90.00;;;;;;5067750;28;20016;-82
2022/06/17 03:30:44;;;;;;;17.90;9.98;;;10.00;89.80;;;;;;5052238;28;20020;-83
2022/06/17 03:33:20;;;;;;;19.52;10.07;;;10.10;89.90;;;;;;5052213;28;20455;-83
2022/06/17 03:35:49;;;;;;;18.23;9.98;;;10.20;89.90;;;;;;5048133;28;20029;-83
2022/06/17 03:38:38;;;;;;;12.85;9.30;;;10.30;89.70;;;;;;5051459;28;20086;-83
2022/06/17 03:41:29;;;;;;;13.90;8.55;;;10.30;89.30;;;;;;5066182;28;20111;-83
2022/06/17 03:44:05;;;;;;;13.55;9.18;;;10.30;89.10;;;;;;5050609;28;20037;-83
2022/06/17 03:46:36;;;;;;;16.30;9.30;;;10.30;88.80;;;;;;5065989;28;20102;-83
2022/06/17 03:49:07;;;;;;;15.18;10.10;;;10.40;88.60;;;;;;5067717;28;20063;-83
2022/06/17 03:51:35;;;;;;;14.15;9.73;;;10.50;88.60;;;;;;5053079;28;20024;-83
2022/06/17 03:54:01;;;;;;;12.45;9.02;;;10.50;88.40;;;;;;5052956;28;20029;-83
2022/06/17 03:56:34;;;;;;;14.63;9.73;;;10.60;88.40;;;;;;5051774;28;20131;-83
2022/06/17 03:59:03;;;;;;;15.45;10.35;;;10.70;88.50;;;;;;5051811;28;20028;-83
2022/06/17 04:01:37;;;;;;;14.25;9.40;;;10.80;88.50;;;;;;5057175;28;20028;-83
2022/06/17 04:04:15;;;;;;;13.13;8.80;;;10.80;88.00;;;;;;5054264;28;20114;-83
2022/06/17 04:06:42;;;;;;;13.57;8.88;;;10.90;88.30;;;;;;5053581;28;20029;-83
2022/06/17 04:09:29;;;;;;;15.88;9.57;;;10.90;88.00;;;;;;5048673;28;20488;-83
2022/06/17 04:12:12;;;;;;;12.05;8.85;;;10.90;88.00;;;;;;5053891;28;20082;-83
2022/06/17 04:15:08;;;;;;;15.88;9.23;;;10.90;88.20;;;;;;5058757;28;20179;-83
2022/06/17 04:17:39;;;;;;;14.43;9.18;;;11.00;88.30;;;;;;5041288;28;20521;-84
2022/06/17 04:20:26;;;;;;;11.93;8.98;;;11.00;88.00;;;;;;5058629;28;20032;-84
2022/06/17 04:23:00;;;;;;;12.07;8.90;;;11.00;87.90;;;;;;5064822;28;20032;-84
2022/06/17 04:25:29;;;;;;;14.57;9.75;;;11.10;87.70;;;;;;5069806;28;20162;-84
2022/06/17 04:27:58;;;;;;;13.55;8.55;;;11.00;87.70;;;;;;5053508;28;20024;-84
2022/06/17 04:30:34;;;;;;;14.65;8.45;;;11.20;87.90;;;;;;5050483;28;20025;-83
2022/06/17 04:33:09;;;;;;;14.73;8.88;;;11.20;87.90;;;;;;5052193;28;20020;-83
2022/06/17 04:35:35;;;;;;;14.07;8.50;;;11.30;87.90;;;;;;5064128;28;20020;-83
2022/06/17 04:38:01;;;;;;;14.95;9.50;;;11.30;88.00;;;;;;5070420;28;20056;-83
2022/06/17 04:40:37;;;;;;;15.60;8.45;;;11.40;87.90;;;;;;5065001;28;20028;-83
2022/06/17 04:43:34;;;;;;;13.75;8.77;;;11.50;87.70;;;;;;5071247;28;20119;-83
2022/06/17 04:46:08;;;;;;;15.60;9.15;;;11.60;87.30;;;;;;5032882;28;20057;-83
2022/06/17 04:48:35;;;;;;;13.68;8.93;;;11.70;86.80;;;;;;5068584;28;20078;-83
2022/06/17 04:51:01;;;;;;;13.30;8.80;;;11.80;86.40;;;;;;5053434;28;20029;-83
2022/06/17 04:53:28;;;;;;;17.33;8.98;;;11.90;86.00;;;;;;5053660;28;20052;-83
2022/06/17 04:55:54;;;;;;;13.63;9.00;;;11.90;85.90;;;;;;5045653;28;20455;-86
2022/06/17 04:58:22;;;;;;;13.63;9.05;;;12.00;86.40;;;;;;5049729;28;20059;-86
2022/06/17 05:00:51;;;;;;;13.18;8.43;;;12.10;86.30;;;;;;5065767;28;20028;-86
2022/06/17 05:03:17;;;;;;;16.45;8.95;;;12.20;85.70;;;;;;5065355;28;20055;-86
2022/06/17 05:05:45;;;;;;;13.02;8.50;;;12.30;85.70;;;;;;5050647;28;20071;-86
2022/06/17 05:08:28;;;;;;;11.57;8.85;;;12.30;85.60;;;;;;5070907;28;20069;-86
2022/06/17 05:11:20;;;;;;;13.55;8.50;;;12.40;85.50;;;;;;5050091;28;20088;-86
2022/06/17 05:14:04;;;;;;;12.40;8.57;;;12.50;85.60;;;;;;5070213;28;20131;-86
2022/06/17 05:16:29;;;;;;;15.88;8.02;;;12.60;85.30;;;;;;5062851;28;20082;-86
2022/06/17 05:18:57;;;;;;;11.52;7.95;;;12.60;84.80;;;;;;5048351;28;20028;-85
2022/06/17 05:21:25;;;;;;;11.20;7.90;;;12.70;84.30;;;;;;5054158;28;20055;-86
2022/06/17 05:23:54;;;;;;;12.35;8.18;;;12.80;84.20;;;;;;5052939;28;20059;-86
2022/06/17 05:26:20;;;;;;;13.10;8.20;;;12.90;84.40;;;;;;5049010;28;20442;-85
2022/06/17 05:28:46;;;;;;;10.43;8.40;;;13.10;84.00;;;;;;5047011;28;20025;-85
2022/06/17 05:31:16;;;;;;;11.40;8.10;;;13.30;84.00;;;;;;5052197;28;20028;-85
2022/06/17 05:33:42;;;;;;;13.10;7.40;;;13.40;83.30;;;;;;5048676;28;20134;-85
2022/06/17 05:36:08;;;;;;;12.45;7.78;;;13.50;83.00;;;;;;5066292;28;20029;-85
2022/06/17 05:38:33;;;;;;;12.95;7.22;;;13.70;83.20;;;;;;5051096;28;20056;-85
2022/06/17 05:40:59;;;;;;;14.73;7.32;;;13.90;82.00;;;;;;5052300;28;20550;-84
2022/06/17 05:43:24;;;;;;;10.93;6.38;;;14.10;81.60;;;;;;5065113;28;20060;-85
2022/06/17 05:45:50;;;;;;;13.27;6.78;;;14.10;80.70;;;;;;5052007;28;20017;-85
2022/06/17 05:48:15;;;;;;;10.85;6.30;;;14.30;79.90;;;;;;5048672;28;20070;-86
2022/06/17 05:50:41;;;;;;;10.80;5.97;;;14.40;79.60;;;;;;5049630;28;20028;-85
2022/06/17 05:53:10;;;;;;;10.18;6.38;;;14.60;78.90;;;;;;5051897;28;20094;-85
2022/06/17 05:55:36;;;;;;;12.40;6.68;;;14.60;78.80;;;;;;5051722;28;20052;-85
2022/06/17 05:58:03;;;;;;;9.05;5.90;;;14.70;78.30;;;;;;5046703;28;20047;-85
2022/06/17 06:00:31;;;;;;;9.88;5.70;;;14.80;78.20;;;;;;5063512;28;20020;-85
2022/06/17 06:02:59;;;;;;;9.25;5.78;;;14.90;78.60;;;;;;5070230;28;20547;-85
2022/06/17 06:05:29;;;;;;;11.00;6.57;;;15.00;77.60;;;;;;5068568;28;20054;-85
2022/06/17 06:07:55;;;;;;;10.13;5.90;;;15.10;77.50;;;;;;5049188;28;20024;-86
2022/06/17 06:10:22;;;;;;;9.20;5.78;;;15.30;77.10;;;;;;5049489;28;20090;-82
2022/06/17 06:12:53;;;;;;;7.50;5.53;;;15.40;76.40;;;;;;5062890;28;20043;-84
2022/06/17 06:15:23;;;;;;;7.70;5.50;;;15.60;76.40;;;;;;5063524;28;20044;-83
2022/06/17 06:17:49;;;;;;;11.57;6.43;;;15.70;75.60;;;;;;5045156;28;20495;-83
2022/06/17 06:20:16;;;;;;;10.70;6.47;;;15.80;75.30;;;;;;5046862;28;20032;-83
2022/06/17 06:22:41;;;;;;;9.40;5.45;;;16.00;74.40;;;;;;5065358;28;20113;-83
2022/06/17 06:25:09;;;;;;;9.52;5.80;;;16.10;73.20;;;;;;5045707;28;20029;-83
2022/06/17 06:27:35;;;;;;;11.68;6.32;;;16.30;74.00;;;;;;5062770;28;20016;-83
2022/06/17 06:30:00;;;;;;;7.80;5.18;;;16.40;73.20;;;;;;5050237;28;20077;-84
2022/06/17 06:32:26;;;;;;;9.50;5.22;;;16.70;73.20;;;;;;5050236;28;20021;-83
2022/06/17 06:34:52;;;;;;;16.23;5.63;;;16.80;71.40;;;;;;5069875;28;20028;-83
2022/06/17 06:37:18;;;;;;;7.70;4.93;;;16.90;71.40;;;;;;5068257;28;20036;-83
2022/06/17 06:39:44;;;;;;;10.07;5.03;;;17.10;72.10;;;;;;5049483;28;20029;-83
2022/06/17 06:42:10;;;;;;;12.80;4.40;;;17.30;70.30;;;;;;5047085;28;20389;-83
2022/06/17 06:44:35;;;;;;;7.75;4.40;;;17.50;69.10;;;;;;5042890;28;20532;-83
2022/06/17 06:47:01;;;;;;;6.85;4.60;;;17.60;67.50;;;;;;5050075;28;20025;-84
2022/06/17 06:49:26;;;;;;;7.30;4.18;;;17.60;67.90;;;;;;5050867;28;20028;-83
2022/06/17 06:51:52;;;;;;;7.32;4.30;;;17.90;68.20;;;;;;5069820;28;20484;-83
2022/06/17 06:54:17;;;;;;;7.57;3.90;;;18.00;68.00;;;;;;5050334;28;20036;-84
2022/06/17 06:56:43;;;;;;;7.35;4.22;;;18.10;67.20;;;;;;5067636;28;20064;-83
2022/06/17 06:59:11;;;;;;;11.25;4.03;;;18.30;66.30;;;;;;5051455;28;20036;-84
2022/06/17 07:01:37;;;;;;;8.52;4.07;;;18.30;64.20;;;;;;5073636;28;20483;-84
2022/06/17 07:04:04;;;;;;;8.80;4.25;;;18.50;64.50;;;;;;5063668;28;20028;-83
2022/06/17 07:06:29;;;;;;;6.32;3.80;;;18.50;64.60;;;;;;5071332;28;20504;-83
2022/06/17 07:08:55;;;;;;;7.65;3.85;;;18.60;64.20;;;;;;5069052;28;20075;-83
2022/06/17 07:11:20;;;;;;;6.13;3.70;;;18.60;63.50;;;;;;5054825;28;20035;-82
2022/06/17 07:13:46;;;;;;;9.90;3.95;;;18.80;64.50;;;;;;5054616;28;20815;-81
2022/06/17 07:16:12;;;;;;;6.90;4.10;;;19.00;63.90;;;;;;5057495;28;20127;-81
2022/06/17 07:18:38;;;;;;;6.05;3.92;;;19.00;63.00;;;;;;5057511;28;20038;-81
2022/06/17 07:21:07;;;;;;;7.13;3.40;;;19.20;62.40;;;;;;5056382;28;20576;-81
2022/06/17 07:23:35;;;;;;;8.68;3.80;;;19.10;61.30;;;;;;5070020;28;20028;-82
2022/06/17 07:26:08;;;;;;;8.30;3.65;;;19.40;61.40;;;;;;5054648;28;20028;-81
2022/06/17 07:28:34;;;;;;;7.65;3.47;;;19.50;59.50;;;;;;5057047;28;20499;-81
2022/06/17 07:31:00;;;;;;;7.28;3.33;;;19.60;59.60;;;;;;5059203;28;20024;-81
2022/06/17 07:33:28;;;;;;;8.65;3.58;;;19.90;58.80;;;;;;5056675;28;20046;-82
2022/06/17 07:35:57;;;;;;;6.05;2.75;;;20.00;58.40;;;;;;5074858;28;20017;-81
2022/06/17 07:41:12;;;;;;;5.90;2.85;;;20.10;57.30;;;;;;5072794;28;20028;-81
2022/06/17 07:43:38;;;;;;;5.97;2.83;;;20.50;57.20;;;;;;5051770;28;20028;-81
2022/06/17 07:46:05;;;;;;;6.20;3.25;;;20.50;56.80;;;;;;5075616;28;20048;-82
2022/06/17 07:48:31;;;;;;;7.43;3.15;;;20.90;58.30;;;;;;5060750;28;20491;-82
2022/06/17 07:50:58;;;;;;;5.40;2.92;;;21.00;55.10;;;;;;5071837;28;20040;-81
2022/06/17 07:53:26;;;;;;;7.47;3.22;;;21.10;54.30;;;;;;5053980;28;20369;-81
2022/06/17 07:55:52;;;;;;;6.55;3.17;;;21.50;54.00;;;;;;5074848;28;20035;-81
2022/06/17 07:58:18;;;;;;;5.10;2.63;;;21.50;52.60;;;;;;5077711;28;20056;-81
2022/06/17 08:00:45;;;;;;;7.10;3.05;;;21.50;52.60;;;;;;5054343;28;20071;-81
2022/06/17 08:03:14;;;;;;;5.70;2.78;;;21.60;52.30;;;;;;5072182;28;20480;-81
2022/06/17 08:05:42;;;;;;;5.28;2.80;;;21.80;52.20;;;;;;5067319;28;20034;-82
2022/06/17 08:08:09;;;;;;;10.95;3.05;;;21.80;50.80;;;;;;5069460;28;20032;-82
2022/06/17 08:10:36;;;;;;;8.57;2.80;;;22.20;51.90;;;;;;5068236;28;20440;-82
2022/06/17 08:13:04;;;;;;;5.95;2.63;;;22.00;51.60;;;;;;5056232;28;20144;-81
2022/06/17 08:15:29;;;;;;;5.80;2.72;;;21.90;51.10;;;;;;5055767;28;20056;-82
2022/06/17 08:17:55;;;;;;;7.97;2.42;;;21.80;51.50;;;;;;5076040;28;20051;-82
2022/06/17 08:20:27;;;;;;;6.18;2.75;;;22.00;52.00;;;;;;5071180;28;20035;-82
2022/06/17 08:22:53;;;;;;;5.78;2.78;;;21.80;52.90;;;;;;5071245;28;20039;-83
2022/06/17 08:25:19;;;;;;;9.32;2.70;;;21.90;52.10;;;;;;5049102;28;20021;-83
2022/06/17 08:27:54;;;;;;;4.53;2.58;;;22.00;51.70;;;;;;5053121;28;20056;-83
2022/06/17 08:30:23;;;;;;;5.35;2.22;;;22.00;49.80;;;;;;5044822;28;20111;-83
2022/06/17 08:32:51;;;;;;;6.75;2.50;;;22.00;50.20;;;;;;5052836;28;20361;-82
2022/06/17 08:35:21;;;;;;;3.80;2.42;;;22.10;48.50;;;;;;5070964;28;20032;-83
2022/06/17 08:37:48;;;;;;;6.35;2.72;;;22.00;49.60;;;;;;5053043;28;20051;-82
2022/06/17 08:40:43;;;;;;;5.13;2.75;;;22.20;49.00;;;;;;5068031;28;20100;-82
2022/06/17 08:43:37;;;;;;;4.93;2.40;;;22.10;49.70;;;;;;5054978;28;20025;-82
2022/06/17 08:46:21;;;;;;;7.50;2.20;;;22.10;48.50;;;;;;5069933;28;20060;-82
2022/06/17 08:49:15;;;;;;;4.63;2.08;;;22.20;48.90;;;;;;5061673;28;20028;-83
2022/06/17 08:51:51;;;;;;;4.72;2.33;;;22.50;49.30;;;;;;5068723;28;20036;-83
2022/06/17 08:54:41;;;;;;;4.20;2.35;;;22.50;48.90;;;;;;5067288;28;20044;-83
2022/06/17 08:57:12;;;;;;;3.60;2.20;;;22.30;46.80;;;;;;5050792;28;20043;-83
2022/06/17 09:00:03;;;;;;;6.03;2.30;;;22.50;47.00;;;;;;5046350;28;20078;-83
2022/06/17 09:02:45;;;;;;;4.68;1.92;;;22.50;48.60;;;;;;5054390;28;20060;-83
2022/06/17 09:05:41;;;;;;;4.20;2.20;;;22.60;47.20;;;;;;5064053;28;20052;-83
2022/06/17 09:08:21;;;;;;;3.83;2.53;;;22.70;47.60;;;;;;5048462;28;20040;-83
2022/06/17 09:10:50;;;;;;;4.07;2.00;;;22.60;48.30;;;;;;5069510;28;20037;-82
2022/06/17 09:13:49;;;;;;;4.30;2.03;;;22.40;48.50;;;;;;5069227;28;20032;-82
2022/06/17 09:16:40;;;;;;;5.05;2.22;;;22.70;47.20;;;;;;5065842;28;20032;-83
2022/06/17 09:19:07;;;;;;;6.13;2.20;;;22.90;46.70;;;;;;5052207;28;20016;-83
2022/06/17 09:21:52;;;;;;;4.22;2.20;;;22.80;46.70;;;;;;5062139;28;20325;-83
2022/06/17 09:24:24;;;;;;;5.90;2.55;;;22.90;47.20;;;;;;5043048;28;20128;-83
2022/06/17 09:27:00;;;;;;;3.58;1.92;;;23.00;46.90;;;;;;5067761;28;20067;-83
2022/06/17 09:29:49;;;;;;;4.68;2.50;;;23.60;50.10;;;;;;5054771;28;20029;-83
2022/06/17 09:32:22;;;;;;;4.47;2.50;;;23.50;46.20;;;;;;5069919;28;20020;-83
2022/06/17 09:35:04;;;;;;;3.63;2.20;;;23.40;46.50;;;;;;5053100;28;20047;-83
2022/06/17 09:37:41;;;;;;;5.72;2.08;;;23.70;46.90;;;;;;5036226;28;20547;-83
2022/06/17 09:40:15;;;;;;;6.65;2.03;;;24.10;43.30;;;;;;5068371;28;20032;-83
2022/06/17 09:42:52;;;;;;;6.60;2.30;;;24.00;44.70;;;;;;5044583;28;20029;-84
2022/06/17 09:45:49;;;;;;;4.43;2.15;;;23.80;44.70;;;;;;5065778;28;20103;-83
2022/06/17 09:48:40;;;;;;;6.85;2.22;;;24.00;43.70;;;;;;5053707;28;20043;-84
2022/06/17 09:51:29;;;;;;;5.18;1.65;;;24.70;43.40;;;;;;5067709;28;20099;-84
2022/06/17 09:54:05;;;;;;;4.88;2.10;;;24.60;43.40;;;;;;5018748;28;20052;-83
2022/06/17 09:56:49;;;;;;;5.97;2.10;;;24.50;41.90;;;;;;5069338;28;20040;-84
2022/06/17 09:59:18;;;;;;;7.45;2.60;;;24.40;43.10;;;;;;5051369;28;20028;-84
2022/06/17 10:01:46;;;;;;;3.42;2.00;;;24.50;42.30;;;;;;5047716;28;20028;-84
2022/06/17 10:04:13;;;;;;;6.68;2.22;;;24.50;41.60;;;;;;5066437;28;20021;-85
2022/06/17 10:06:43;;;;;;;6.63;2.13;;;24.50;44.20;;;;;;5063580;28;20628;-84
2022/06/17 10:09:33;;;;;;;7.28;2.15;;;24.50;42.50;;;;;;5046890;28;20387;-84
2022/06/17 10:11:59;;;;;;;4.68;2.22;;;24.00;44.60;;;;;;5047573;28;20051;-84
2022/06/17 10:15:01;;;;;;;4.93;2.13;;;23.60;44.40;;;;;;5066673;28;20379;-85
2022/06/17 10:20:59;;;;;;;4.15;2.10;;;24.00;44.10;;;;;;5071052;28;20051;-84
2022/06/17 10:23:44;;;;;;;4.45;1.90;;;24.40;44.10;;;;;;5066456;28;20826;-84
2022/06/17 10:26:19;;;;;;;4.35;1.92;;;24.50;43.40;;;;;;5049849;28;20607;-85
2022/06/17 10:28:51;;;;;;;5.32;1.95;;;24.60;43.30;;;;;;5046869;28;20070;-84
2022/06/17 10:31:28;;;;;;;7.25;2.42;;;24.80;43.20;;;;;;5068389;28;20029;-84
2022/06/17 10:33:55;;;;;;;5.10;2.00;;;24.70;43.70;;;;;;5047832;28;20484;-84
2022/06/17 10:36:21;;;;;;;3.75;1.92;;;24.90;43.80;;;;;;5069179;28;20032;-84
2022/06/17 10:38:47;;;;;;;3.50;1.73;;;24.90;41.70;;;;;;5052208;28;20078;-84
2022/06/17 10:41:14;;;;;;;3.38;1.50;;;25.20;42.10;;;;;;5051010;28;20036;-85
2022/06/17 10:43:48;;;;;;;7.65;2.20;;;25.20;41.80;;;;;;5063111;28;20035;-84
2022/06/17 10:46:28;;;;;;;4.45;1.95;;;25.10;40.30;;;;;;5049622;28;20487;-85
2022/06/17 10:49:04;;;;;;;6.88;2.05;;;25.60;43.50;;;;;;5048297;28;20539;-85
2022/06/17 10:51:33;;;;;;;5.45;2.22;;;26.10;43.40;;;;;;5065177;28;20483;-84
2022/06/17 10:54:04;;;;;;;3.80;2.08;;;26.00;41.80;;;;;;5067790;28;20086;-84
2022/06/17 10:56:36;;;;;;;5.60;2.08;;;25.60;40.60;;;;;;5067780;28;20479;-85
2022/06/17 10:59:09;;;;;;;5.88;1.77;;;25.90;42.20;;;;;;5058133;28;20473;-85
2022/06/17 11:01:54;;;;;;;5.50;1.98;;;26.00;41.40;;;;;;5061184;28;20468;-84
2022/06/17 11:04:28;;;;;;;4.07;1.88;;;26.00;42.20;;;;;;5046835;28;20025;-85
2022/06/17 11:07:17;;;;;;;4.35;1.80;;;26.20;42.40;;;;;;5047737;28;20025;-85
2022/06/17 11:09:51;;;;;;;6.35;1.83;;;26.20;41.90;;;;;;5059000;28;20472;-85
2022/06/17 11:12:30;;;;;;;6.65;1.95;;;26.40;41.50;;;;;;5061315;28;20450;-85
2022/06/17 11:15:03;;;;;;;4.20;1.63;;;26.70;39.40;;;;;;5044350;28;20039;-84
2022/06/17 11:17:42;;;;;;;6.95;2.08;;;26.50;39.10;;;;;;5042380;28;20549;-85
2022/06/17 11:20:20;;;;;;;4.05;1.77;;;26.50;39.90;;;;;;5067498;28;20039;-85
2022/06/17 11:22:59;;;;;;;7.03;1.80;;;26.20;39.10;;;;;;5046737;28;20032;-85
2022/06/17 11:25:30;;;;;;;3.55;1.80;;;26.20;40.60;;;;;;5062824;28;20086;-85
2022/06/17 11:27:59;;;;;;;3.38;1.45;;;26.30;40.10;;;;;;5069005;28;20029;-85
2022/06/17 11:30:34;;;;;;;2.90;1.27;;;26.20;41.40;;;;;;5044652;28;20030;-85
2022/06/17 11:33:01;;;;;;;3.72;1.77;;;26.20;39.90;;;;;;5047265;28;20044;-85
2022/06/17 11:35:29;;;;;;;8.43;1.95;;;26.70;40.90;;;;;;5049591;28;20052;-85
2022/06/17 11:37:57;;;;;;;4.18;1.70;;;26.50;39.50;;;;;;5050462;28;20139;-85
2022/06/17 11:40:29;;;;;;;3.30;1.67;;;26.30;40.10;;;;;;5048242;28;20555;-84
2022/06/17 11:42:54;;;;;;;5.60;1.98;;;26.20;39.60;;;;;;5066467;28;20104;-85
2022/06/17 11:45:31;;;;;;;4.43;2.05;;;26.60;39.50;;;;;;5053282;28;20198;-84
2022/06/17 11:48:20;;;;;;;6.30;1.70;;;26.50;39.00;;;;;;5051756;28;20555;-85
2022/06/17 11:51:16;;;;;;;5.18;1.60;;;26.60;39.20;;;;;;5056123;28;20039;-84
2022/06/17 11:53:49;;;;;;;5.65;1.80;;;26.50;38.90;;;;;;5070035;28;20024;-85
2022/06/17 11:56:34;;;;;;;4.20;1.80;;;26.70;39.60;;;;;;5046591;28;20029;-84
2022/06/17 11:59:16;;;;;;;2.20;1.52;;;26.90;39.50;;;;;;5067487;28;20301;-84
2022/06/17 12:01:52;;;;;;;7.32;1.63;;;26.40;37.30;;;;;;5070979;28;20392;-84
2022/06/17 12:04:49;;;;;;;4.47;2.00;;;26.40;40.50;;;;;;5054793;28;20605;-84
2022/06/17 12:07:45;;;;;;;6.43;1.60;;;26.70;38.60;;;;;;5051387;28;20025;-84
2022/06/17 12:10:14;;;;;;;4.88;1.70;;;26.40;38.20;;;;;;5063807;28;20025;-84
2022/06/17 12:12:40;;;;;;;2.63;1.40;;;26.30;39.10;;;;;;5064827;28;20139;-83
2022/06/17 12:15:31;;;;;;;6.80;1.90;;;25.80;39.80;;;;;;5050300;28;20040;-83
2022/06/17 12:18:00;;;;;;;2.95;1.42;;;25.90;39.90;;;;;;5049622;28;20622;-83
2022/06/17 12:20:36;;;;;;;5.78;1.60;;;25.80;40.20;;;;;;5062106;28;20028;-83
2022/06/17 12:23:59;;;;;;;3.67;1.55;;;25.70;40.80;;;;;;5068874;28;20037;-83
2022/06/17 12:26:35;;;;;;;4.00;1.70;;;25.60;40.30;;;;;;5027980;28;20040;-84
2022/06/17 12:29:07;;;;;;;4.07;1.80;;;25.60;39.90;;;;;;5030319;28;20031;-83
2022/06/17 12:31:39;;;;;;;4.57;1.88;;;25.90;39.00;;;;;;5038930;28;20502;-84
2022/06/17 12:34:18;;;;;;;4.20;1.50;;;25.90;39.40;;;;;;5064870;28;20102;-84
2022/06/17 12:36:55;;;;;;;2.75;1.52;;;26.30;40.10;;;;;;5066054;28;20039;-87
2022/06/17 12:39:45;;;;;;;4.03;1.83;;;26.60;38.90;;;;;;5071904;28;20060;-86
2022/06/17 12:42:21;;;;;;;4.45;1.60;;;26.20;38.60;;;;;;5053980;28;20116;-86
2022/06/17 12:45:20;;;;;;;7.18;1.90;;;26.40;39.90;;;;;;5053408;28;20132;-85
2022/06/17 12:48:00;;;;;;;8.63;1.83;;;26.20;38.80;;;;;;5046896;28;20025;-86
2022/06/17 12:53:57;;;;;;;4.75;1.60;;;26.20;41.50;;;;;;5067611;28;20082;-86
2022/06/17 12:57:00;;;;;;;6.07;1.60;;;26.00;41.00;;;;;;5047506;28;20025;-86
2022/06/17 12:59:53;;;;;;;3.88;1.73;;;26.00;39.90;;;;;;5071730;28;20021;-85
2022/06/17 13:02:21;;;;;;;3.72;1.60;;;26.00;39.80;;;;;;5072412;28;20020;-85
2022/06/17 13:04:59;;;;;;;8.07;1.80;;;26.10;40.30;;;;;;5070604;28;20032;-86
2022/06/17 13:07:36;;;;;;;4.68;1.60;;;25.80;41.70;;;;;;5071633;28;20016;-85
2022/06/17 13:13:27;;;;;;;2.80;1.60;;;25.90;42.90;;;;;;5068831;28;20051;-85
2022/06/17 13:16:00;;;;;;;3.40;1.63;;;25.50;42.70;;;;;;5069879;28;20036;-85
2022/06/17 13:18:41;;;;;;;8.35;1.77;;;25.70;42.10;;;;;;5069808;28;20040;-86
2022/06/17 13:21:33;;;;;;;3.95;1.70;;;25.80;43.50;;;;;;5050329;28;20029;-85
2022/06/17 13:24:05;;;;;;;2.58;1.45;;;25.90;41.80;;;;;;5058298;28;20089;-85
2022/06/17 13:26:41;;;;;;;5.68;1.85;;;26.10;42.10;;;;;;5039805;28;20021;-84
2022/06/17 13:29:19;;;;;;;6.80;1.88;;;26.00;42.20;;;;;;5050419;28;20074;-84